Time;durP1;ratioP1;P1;durP2;ratioP2;P2;SDS_P1;SDS_P2;PMS_P1;PMS_P2;Temp;Humidity;BMP_temperature;BMP_pressure;BME280_temperature;BME280_humidity;BME280_pressure;Samples;Min_cycle;Max_cycle;Signal;HPM_P1;HPM_P2
2022/10/03 00:01:49;;;;;;;;;11.00;11.00;;;;;16.68;60.49;98247.84;4929865;28;103610;-66
2022/10/03 00:04:38;;;;;;;;;10.75;10.75;;;;;16.68;60.43;98256.03;4939178;28;102381;-66
2022/10/03 00:07:15;;;;;;;;;13.50;12.25;;;;;16.69;60.34;98252.22;4937019;28;108900;-67
2022/10/03 00:10:20;;;;;;;;;11.75;9.75;;;;;16.69;60.96;98246.75;4939377;28;102349;-66
2022/10/03 00:12:53;;;;;;;;;13.75;11.00;;;;;16.70;60.97;98239.41;4917424;28;102416;-67
2022/10/03 00:15:29;;;;;;;;;12.00;12.00;;;;;16.68;60.24;98242.38;4936844;28;103236;-66
2022/10/03 00:18:25;;;;;;;;;8.75;7.00;;;;;16.69;60.76;98238.56;4938462;28;104110;-66
2022/10/03 00:21:13;;;;;;;;;12.00;11.75;;;;;16.70;60.32;98247.59;4935577;28;102369;-66
2022/10/03 00:23:59;;;;;;;;;10.75;10.25;;;;;16.68;60.80;98242.38;4930520;28;102554;-67
2022/10/03 00:26:44;;;;;;;;;12.00;10.00;;;;;16.69;61.14;98243.19;4944207;28;102657;-66
2022/10/03 00:29:16;;;;;;;;;11.25;10.00;;;;;16.68;61.00;98242.38;4928479;28;108847;-67
2022/10/03 00:32:06;;;;;;;;;12.25;8.75;;;;;16.68;61.02;98238.81;4922576;28;102300;-66
2022/10/03 00:34:51;;;;;;;;;10.50;9.00;;;;;16.68;60.57;98231.44;4925308;28;102466;-66
2022/10/03 00:37:36;;;;;;;;;9.00;8.67;;;;;16.68;60.25;98228.72;4930049;28;102730;-66
2022/10/03 00:40:18;;;;;;;;;11.25;10.25;;;;;16.67;61.13;98227.06;4908045;28;109134;-66
2022/10/03 00:42:51;;;;;;;;;10.50;8.50;;;;;16.66;60.69;98222.66;4939279;28;102385;-66
2022/10/03 00:45:43;;;;;;;;;10.67;10.67;;;;;16.64;60.84;98227.56;4946357;28;102389;-66
2022/10/03 00:48:25;;;;;;;;;10.25;10.25;;;;;16.64;60.57;98224.84;4935715;28;102354;-67
2022/10/03 00:50:58;;;;;;;;;8.50;8.50;;;;;16.65;61.00;98226.50;4930345;28;104041;-67
2022/10/03 00:53:42;;;;;;;;;9.50;9.00;;;;;16.66;60.31;98228.13;4946357;28;102613;-66
2022/10/03 00:56:23;;;;;;;;;9.00;9.00;;;;;16.66;60.02;98217.22;4912135;28;102317;-66
2022/10/03 00:59:14;;;;;;;;;9.25;9.25;;;;;16.67;60.76;98218.03;4920074;28;102215;-66
2022/10/03 01:01:47;;;;;;;;;9.00;9.00;;;;;16.67;60.17;98221.59;4929239;28;108970;-66
2022/10/03 01:04:35;;;;;;;;;10.50;9.75;;;;;16.67;60.56;98223.50;4917176;28;102484;-67
2022/10/03 01:07:21;;;;;;;;;11.00;8.25;;;;;16.65;60.51;98215.59;4948074;28;102460;-66
2022/10/03 01:10:22;;;;;;;;;10.00;9.25;;;;;16.65;60.19;98210.13;4940399;28;102483;-66
2022/10/03 01:13:38;;;;;;;;;9.50;9.00;;;;;16.66;60.40;98209.03;4920957;28;108254;-66
2022/10/03 01:16:59;;;;;;;;;10.25;9.00;;;;;16.65;60.28;98212.84;4932648;28;103234;-66
2022/10/03 01:20:27;;;;;;;;;10.50;9.00;;;;;16.66;61.05;98211.75;4929849;28;102127;-66
2022/10/03 01:23:29;;;;;;;;;9.33;9.33;;;;;16.66;60.47;98209.03;4927300;28;102366;-67
2022/10/03 01:26:26;;;;;;;;;11.00;9.33;;;;;16.65;60.43;98204.66;4937648;28;108169;-67
2022/10/03 01:31:49;;;;;;;;;8.67;7.33;;;;;16.65;60.57;98221.03;4923000;28;102222;-66
2022/10/03 01:34:29;;;;;;;;;9.00;9.00;;;;;16.63;61.14;98212.25;4927473;28;103105;-66
2022/10/03 01:37:05;;;;;;;;;7.75;7.00;;;;;16.63;60.37;98217.72;4914039;28;104255;-66
2022/10/03 01:40:07;;;;;;;;;6.25;6.00;;;;;16.63;60.80;98214.16;4918969;28;102509;-66
2022/10/03 01:42:52;;;;;;;;;10.25;9.00;;;;;16.64;60.74;98222.09;4893084;28;102757;-66
2022/10/03 01:45:46;;;;;;;;;7.75;7.50;;;;;16.64;60.27;98222.09;4924745;28;103370;-66
2022/10/03 01:48:21;;;;;;;;;9.00;8.50;;;;;16.64;60.26;98219.38;4926256;28;108831;-66
2022/10/03 01:51:20;;;;;;;;;8.25;7.25;;;;;16.63;60.28;98209.53;4921480;28;102435;-66
2022/10/03 01:53:55;;;;;;;;;9.50;8.50;;;;;16.64;60.44;98213.91;4922359;28;102452;-66
2022/10/03 01:56:39;;;;;;;;;11.00;9.00;;;;;16.64;60.81;98202.16;4943774;28;102251;-66
2022/10/03 01:59:13;;;;;;;;;10.25;9.00;;;;;16.65;60.75;98210.13;4930708;28;109660;-66
2022/10/03 02:01:47;;;;;;;;;9.67;7.00;;;;;16.65;60.91;98215.59;4943275;28;102378;-66
2022/10/03 02:04:36;;;;;;;;;7.00;7.00;;;;;16.65;60.61;98218.31;4903864;28;102450;-67
2022/10/03 02:07:06;;;;;;;;;8.33;7.00;;;;;16.66;61.00;98208.22;4940630;28;102512;-66
2022/10/03 02:09:43;;;;;;;;;8.00;8.00;;;;;16.65;60.34;98204.66;4935617;28;108227;-66
2022/10/03 02:12:13;;;;;;;;;6.00;5.00;;;;;16.65;60.89;98199.19;4938958;28;103243;-66
2022/10/03 02:14:57;;;;;;;;;8.33;8.00;;;;;16.65;60.28;98204.66;4925272;28;103068;-66
2022/10/03 02:17:47;;;;;;;;;7.67;7.67;;;;;16.64;60.72;98207.63;4924252;28;102213;-66
2022/10/03 02:20:22;;;;;;;;;8.33;7.33;;;;;16.65;60.81;98206.56;4934826;28;108833;-66
2022/10/03 02:22:54;;;;;;;;;9.67;8.67;;;;;16.64;61.10;98205.72;4950136;28;102554;-67
2022/10/03 02:25:54;;;;;;;;;9.25;9.00;;;;;16.62;60.15;98207.88;4948660;28;102680;-66
2022/10/03 02:28:34;;;;;;;;;8.50;8.50;;;;;16.61;60.69;98206.25;4915294;28;102340;-66
2022/10/03 02:31:19;;;;;;;;;7.67;7.33;;;;;16.62;60.12;98204.31;4932991;28;109125;-66
2022/10/03 02:34:05;;;;;;;;;8.50;6.00;;;;;16.62;60.69;98216.06;4931437;28;102344;-66
2022/10/03 02:36:37;;;;;;;;;8.67;7.67;;;;;16.62;60.66;98216.06;4931542;28;102115;-67
2022/10/03 02:39:10;;;;;;;;;8.00;7.33;;;;;16.62;60.33;98216.06;4942926;28;102940;-66
2022/10/03 02:41:58;;;;;;;;;12.67;8.00;;;;;16.61;60.40;98208.97;4939112;28;109003;-63
2022/10/03 02:44:50;;;;;;;;;8.00;7.33;;;;;16.62;60.33;98212.50;4938325;28;101965;-66
2022/10/03 02:47:38;;;;;;;;;9.67;8.33;;;;;16.62;60.56;98226.97;4942641;28;102642;-67
2022/10/03 02:50:18;;;;;;;;;7.00;5.00;;;;;16.62;60.28;98226.97;4941071;28;102993;-66
2022/10/03 02:53:26;;;;;;;;;9.33;6.67;;;;;16.63;59.88;98222.34;4931924;28;108819;-66
2022/10/03 02:56:24;;;;;;;;;8.00;7.67;;;;;16.62;60.56;98232.44;4849132;28;102556;-66
2022/10/03 02:59:12;;;;;;;;;7.33;7.00;;;;;16.61;60.70;98219.88;4922237;28;102667;-66
2022/10/03 03:01:50;;;;;;;;;9.00;9.00;;;;;16.63;60.16;98227.81;4934202;28;103760;-66
2022/10/03 03:04:36;;;;;;;;;9.33;9.00;;;;;16.63;60.66;98217.72;4939218;28;104240;-66
2022/10/03 03:07:38;;;;;;;;;7.00;7.00;;;;;16.62;59.91;98215.22;4944649;28;102441;-66
2022/10/03 03:10:44;;;;;;;;;9.33;8.00;;;;;16.61;61.01;98219.88;4905111;28;102574;-66
2022/10/03 03:13:35;;;;;;;;;8.67;8.00;;;;;16.62;60.62;98212.50;4945654;28;102497;-67
2022/10/03 03:16:22;;;;;;;;;4.67;4.00;;;;;16.59;60.00;98216.56;4950266;28;109015;-66
2022/10/03 03:18:58;;;;;;;;;6.33;6.33;;;;;16.58;60.69;98214.91;4931491;28;102525;-66
2022/10/03 03:21:54;;;;;;;;;8.00;8.00;;;;;16.58;59.93;98214.06;4939701;28;102981;-66
2022/10/03 03:24:54;;;;;;;;;6.00;6.00;;;;;16.59;60.12;98219.28;4943116;28;102248;-67
2022/10/03 03:27:21;;;;;;;;;7.33;7.33;;;;;16.59;60.74;98222.03;4936168;28;108836;-67
2022/10/03 03:30:14;;;;;;;;;6.00;6.00;;;;;16.60;59.91;98222.84;4946965;28;112146;-66
2022/10/03 03:33:00;;;;;;;;;10.00;7.67;;;;;16.60;60.66;98211.94;4915834;28;102301;-66
2022/10/03 03:35:32;;;;;;;;;8.00;7.33;;;;;16.59;59.97;98213.84;4940218;28;103186;-66
2022/10/03 03:38:29;;;;;;;;;6.67;6.67;;;;;16.59;60.92;98200.19;4938261;28;104110;-66
2022/10/03 03:41:05;;;;;;;;;7.67;7.00;;;;;16.61;59.99;98211.69;4927407;28;103065;-67
2022/10/03 03:43:37;;;;;;;;;7.00;6.00;;;;;16.60;60.52;98210.03;4944816;28;102375;-67
2022/10/03 03:46:58;;;;;;;;;5.75;5.75;;;;;16.60;60.98;98212.75;4934593;28;103128;-66
2022/10/03 03:50:01;;;;;;;;;7.00;7.00;;;;;16.61;60.60;98213.59;4869768;28;108603;-66
2022/10/03 03:52:34;;;;;;;;;5.67;5.67;;;;;16.60;60.98;98207.31;4918290;28;102026;-66
2022/10/03 03:55:25;;;;;;;;;7.67;7.67;;;;;16.60;59.64;98212.75;4936564;28;102307;-66
2022/10/03 03:58:12;;;;;;;;;6.00;6.00;;;;;16.60;59.84;98212.75;4938285;28;102287;-66
2022/10/03 04:00:44;;;;;;;;;7.00;7.00;;;;;16.59;60.55;98211.09;4912593;28;108902;-66
2022/10/03 04:03:18;;;;;;;;;6.33;6.00;;;;;16.59;60.42;98211.09;4905822;28;103182;-66
2022/10/03 04:06:04;;;;;;;;;8.67;8.00;;;;;16.58;60.58;98214.91;4920695;28;102637;-66
2022/10/03 04:08:44;;;;;;;;;6.00;6.00;;;;;16.58;60.51;98211.34;4917654;28;102401;-66
2022/10/03 04:11:32;;;;;;;;;8.67;8.67;;;;;16.57;60.53;98201.50;4927914;28;108611;-66
2022/10/03 04:14:20;;;;;;;;;6.33;6.00;;;;;16.57;60.58;98202.28;4929346;28;102935;-66
2022/10/03 04:19:58;;;;;;;;;7.00;6.67;;;;;16.58;59.93;98197.69;4929721;28;102270;-66
2022/10/03 04:22:59;;;;;;;;;6.67;6.33;;;;;16.58;60.10;98201.25;4933332;28;104092;-66
2022/10/03 04:26:14;;;;;;;;;7.67;7.00;;;;;16.58;60.01;98198.53;4924778;28;102456;-66
2022/10/03 04:28:50;;;;;;;;;7.00;6.00;;;;;16.57;60.58;98201.50;4922267;28;104035;-66
2022/10/03 04:31:29;;;;;;;;;7.00;6.33;;;;;16.57;60.21;98202.28;4931359;28;103458;-66
2022/10/03 04:34:02;;;;;;;;;7.67;7.33;;;;;16.58;60.46;98192.25;4922518;28;104283;-66
2022/10/03 04:36:45;;;;;;;;;6.00;6.00;;;;;16.57;60.82;98196.84;4949196;28;102149;-66
2022/10/03 04:39:36;;;;;;;;;7.00;6.00;;;;;16.58;59.84;98200.44;4929994;28;102444;-66
2022/10/03 04:42:41;;;;;;;;;8.00;7.00;;;;;16.58;60.33;98209.44;4927104;28;102371;-66
2022/10/03 04:45:27;;;;;;;;;6.67;6.67;;;;;16.58;60.55;98209.44;4932971;28;108807;-66
2022/10/03 04:48:05;;;;;;;;;5.00;5.00;;;;;16.59;60.08;98204.81;4925788;28;102137;-66
2022/10/03 04:50:37;;;;;;;;;8.33;6.00;;;;;16.58;60.20;98208.63;4932607;28;104362;-66
2022/10/03 04:53:28;;;;;;;;;5.00;5.00;;;;;16.57;60.46;98218.66;4928101;28;102379;-66
2022/10/03 04:56:37;;;;;;;;;8.00;6.00;;;;;16.55;60.83;98223.56;4911973;28;108787;-66
2022/10/03 04:59:24;;;;;;;;;7.00;7.00;;;;;16.54;59.85;98221.91;4917110;28;102235;-66
2022/10/03 05:01:54;;;;;;;;;6.00;6.00;;;;;16.53;60.27;98221.06;4920207;28;102556;-66
2022/10/03 05:04:25;;;;;;;;;7.00;6.33;;;;;16.54;60.58;98224.63;4920364;28;102645;-66
2022/10/03 05:07:06;;;;;;;;;6.33;6.33;;;;;16.55;60.47;98225.47;4937245;28;104302;-66
2022/10/03 05:09:50;;;;;;;;;4.33;4.33;;;;;16.55;59.87;98220.00;4919740;28;102150;-66
2022/10/03 05:12:21;;;;;;;;;6.67;6.67;;;;;16.56;60.49;98232.59;4919048;28;102548;-66
2022/10/03 05:15:10;;;;;;;;;4.00;4.00;;;;;16.55;60.49;98231.75;4929138;28;102323;-66
2022/10/03 05:18:10;;;;;;;;;6.67;6.00;;;;;16.56;60.23;98217.03;4935011;28;109028;-66
2022/10/03 05:20:43;;;;;;;;;4.00;3.00;;;;;16.56;59.77;98221.66;4907730;28;102212;-66
2022/10/03 05:23:48;;;;;;;;;7.00;6.00;;;;;16.56;60.14;98217.03;4927030;28;102149;-66
2022/10/03 05:26:27;;;;;;;;;6.67;6.00;;;;;16.57;60.18;98224.13;4925706;28;102229;-66
2022/10/03 05:29:20;;;;;;;;;6.33;5.67;;;;;16.57;60.03;98228.78;4935178;28;108999;-66
2022/10/03 05:32:08;;;;;;;;;6.00;6.00;;;;;16.56;59.82;98243.50;4934185;28;102376;-66
2022/10/03 05:35:14;;;;;;;;;5.00;5.00;;;;;16.56;59.80;98235.31;4936568;28;102196;-66
2022/10/03 05:37:48;;;;;;;;;6.33;6.00;;;;;16.57;60.28;98239.72;4932689;28;102508;-65
2022/10/03 05:40:20;;;;;;;;;6.00;6.00;;;;;16.54;60.02;98230.09;4935660;28;104070;-66
2022/10/03 05:42:54;;;;;;;;;6.00;5.00;;;;;16.54;59.92;98232.81;4918261;28;102883;-66
2022/10/03 05:45:29;;;;;;;;;5.67;5.33;;;;;16.55;60.01;98242.69;4919000;28;102053;-66
2022/10/03 05:48:09;;;;;;;;;6.00;5.67;;;;;16.54;60.10;98243.75;4920061;28;102505;-66
2022/10/03 05:51:00;;;;;;;;;6.67;5.67;;;;;16.52;60.34;98243.97;4927494;28;108957;-66
2022/10/03 05:54:03;;;;;;;;;5.33;5.33;;;;;16.52;59.81;98243.97;4910308;28;102314;-66
2022/10/03 05:56:36;;;;;;;;;2.00;2.00;;;;;16.53;60.42;98245.66;4837051;28;102246;-67
2022/10/03 05:59:21;;;;;;;;;6.00;4.67;;;;;16.54;60.15;98241.00;4933562;28;102276;-66
2022/10/03 06:02:00;;;;;;;;;4.00;4.00;;;;;16.55;59.83;98247.31;4935207;28;108794;-66
2022/10/03 06:05:07;;;;;;;;;6.00;6.00;;;;;16.54;60.33;98249.19;4951130;28;102380;-66
2022/10/03 06:08:13;;;;;;;;;5.00;5.00;;;;;16.55;60.67;98259.06;4945851;28;102517;-66
2022/10/03 06:11:04;;;;;;;;;6.00;5.00;;;;;16.55;60.64;98250.88;4893154;28;102573;-66
2022/10/03 06:13:33;;;;;;;;;5.67;5.33;;;;;16.55;60.56;98245.41;4921992;28;104070;-66
2022/10/03 06:16:38;;;;;;;;;6.00;4.67;;;;;16.56;60.29;98254.44;4919970;28;103366;-66
2022/10/03 06:19:17;;;;;;;;;5.00;5.00;;;;;16.56;60.23;98257.16;4905691;28;104305;-66
2022/10/03 06:22:20;;;;;;;;;5.33;5.33;;;;;16.55;60.09;98250.88;4937634;28;102801;-66
2022/10/03 06:25:29;;;;;;;;;3.00;3.00;;;;;16.56;60.67;98249.78;4936154;28;107693;-67
2022/10/03 06:28:20;;;;;;;;;5.33;5.33;;;;;16.56;60.13;98257.97;4897105;28;102335;-66
2022/10/03 06:31:01;;;;;;;;;5.00;5.00;;;;;16.56;60.29;98260.72;4941338;28;102260;-66
2022/10/03 06:33:57;;;;;;;;;5.00;5.00;;;;;16.55;59.82;98253.59;4922189;28;102560;-66
2022/10/03 06:36:54;;;;;;;;;6.00;6.00;;;;;16.55;59.84;98247.31;4917174;28;108912;-67
2022/10/03 06:39:39;;;;;;;;;5.67;5.00;;;;;16.54;60.44;98257.41;4934272;28;102229;-67
2022/10/03 06:42:09;;;;;;;;;4.67;4.00;;;;;16.53;60.14;98244.81;4945650;28;102135;-66
2022/10/03 06:44:58;;;;;;;;;6.67;6.00;;;;;16.53;59.97;98248.38;4940411;28;102436;-66
2022/10/03 06:47:46;;;;;;;;;5.00;4.67;;;;;16.55;60.46;98252.75;4934170;28;108431;-66
2022/10/03 06:50:26;;;;;;;;;5.00;5.00;;;;;16.55;59.74;98253.59;4926121;28;102230;-66
2022/10/03 06:53:17;;;;;;;;;5.33;5.00;;;;;16.55;60.14;98256.31;4941024;28;102343;-66
2022/10/03 06:56:11;;;;;;;;;5.00;4.33;;;;;16.57;59.89;98270.53;4941535;28;102492;-66
2022/10/03 06:58:58;;;;;;;;;5.00;4.33;;;;;16.57;60.48;98273.25;4924817;28;108875;-67
2022/10/03 07:01:50;;;;;;;;;6.00;6.00;;;;;16.56;60.06;98270.81;4925322;28;102213;-66
2022/10/03 07:04:43;;;;;;;;;6.00;6.00;;;;;16.57;59.79;98275.19;4933483;28;102561;-67
2022/10/03 07:07:13;;;;;;;;;3.67;3.67;;;;;16.57;60.18;98273.25;4944510;28;102537;-66
2022/10/03 07:10:08;;;;;;;;;6.00;5.00;;;;;16.57;59.61;98283.38;4915909;28;104060;-64
2022/10/03 07:12:59;;;;;;;;;6.00;5.33;;;;;16.56;60.33;98271.63;4923821;28;102226;-66
2022/10/03 07:15:51;;;;;;;;;6.00;5.00;;;;;16.57;59.74;98277.91;4942866;28;102571;-66
2022/10/03 07:19:19;;;;;;;;;5.67;5.33;;;;;16.56;60.18;98268.91;4936029;28;102285;-66
2022/10/03 07:22:23;;;;;;;;;3.00;3.00;;;;;16.57;60.93;98270.53;4927554;28;108861;-66
2022/10/03 07:25:02;;;;;;;;;4.67;4.67;;;;;16.56;59.85;98271.63;4940806;28;103045;-66
2022/10/03 07:28:11;;;;;;;;;6.00;5.00;;;;;16.56;59.69;98270.81;4932052;28;102536;-67
2022/10/03 07:30:54;;;;;;;;;5.00;5.00;;;;;16.56;60.07;98279.81;4916309;28;102411;-65
2022/10/03 07:33:58;;;;;;;;;5.67;5.00;;;;;16.56;60.20;98273.53;4907218;28;104134;-66
2022/10/03 07:39:54;;;;;;;;;4.67;4.00;;;;;16.57;60.46;98267.81;4926654;28;102099;-66
2022/10/03 07:42:46;;;;;;;;;4.00;4.00;;;;;16.59;60.54;98278.53;4928652;28;102582;-66
2022/10/03 07:45:33;;;;;;;;;5.00;4.00;;;;;16.57;59.67;98265.06;4940954;28;109100;-66
2022/10/03 07:48:18;;;;;;;;;4.67;4.00;;;;;16.58;60.35;98265.94;4935661;28;102478;-67
2022/10/03 07:50:50;;;;;;;;;5.33;5.33;;;;;16.58;59.59;98274.97;4930423;28;102565;-66
2022/10/03 07:53:20;;;;;;;;;4.67;4.33;;;;;16.57;60.19;98273.25;4920986;28;102547;-66
2022/10/03 07:56:16;;;;;;;;;6.33;4.00;;;;;16.58;59.74;98271.41;4931824;28;104243;-66
2022/10/03 07:58:53;;;;;;;;;4.67;4.67;;;;;16.58;60.14;98279.59;4915280;28;102502;-66
2022/10/03 08:01:32;;;;;;;;;4.00;4.00;;;;;16.58;59.96;98274.13;4934156;28;102333;-66
2022/10/03 08:04:18;;;;;;;;;4.67;4.00;;;;;16.58;59.90;98276.84;4946249;28;102522;-66
2022/10/03 08:07:19;;;;;;;;;4.33;4.00;;;;;16.57;59.89;98278.72;4930668;28;108807;-66
2022/10/03 08:10:32;;;;;;;;;5.00;4.00;;;;;16.57;60.36;98276.00;4939760;28;102277;-66
2022/10/03 08:13:29;;;;;;;;;5.00;4.00;;;;;16.57;59.42;98281.44;4911432;28;102440;-66
2022/10/03 08:16:01;;;;;;;;;5.00;5.00;;;;;16.57;60.13;98278.72;4938370;28;102733;-66
2022/10/03 08:18:52;;;;;;;;;5.33;5.00;;;;;16.56;60.29;98298.94;4924977;28;104042;-66
2022/10/03 08:21:21;;;;;;;;;4.00;4.00;;;;;16.57;60.46;98284.19;4926562;28;102193;-66
2022/10/03 08:24:08;;;;;;;;;3.33;3.00;;;;;16.56;60.12;98293.47;4932548;28;102579;-66
2022/10/03 08:26:54;;;;;;;;;2.00;2.00;;;;;16.58;59.94;98288.59;4932150;28;102619;-66
2022/10/03 08:29:46;;;;;;;;;4.00;4.00;;;;;16.58;59.45;98288.59;4935346;28;108802;-66
2022/10/03 08:32:32;;;;;;;;;4.00;4.00;;;;;16.59;60.44;98283.97;4936257;28;102296;-66
2022/10/03 08:35:18;;;;;;;;;5.00;5.00;;;;;16.58;60.13;98277.69;4934547;28;102395;-66
2022/10/03 08:37:50;;;;;;;;;5.00;4.00;;;;;16.59;60.11;98282.06;4940428;28;102972;-66
2022/10/03 08:40:52;;;;;;;;;4.00;4.00;;;;;16.58;60.43;98288.59;4937608;28;104106;-66
2022/10/03 08:43:37;;;;;;;;;5.00;4.00;;;;;16.58;59.73;98277.69;4925323;28;101999;-66
2022/10/03 08:46:20;;;;;;;;;4.33;3.67;;;;;16.58;60.27;98280.41;4935398;28;102167;-66
2022/10/03 08:48:53;;;;;;;;;4.00;4.00;;;;;16.59;59.97;98282.06;4930685;28;102434;-66
2022/10/03 08:51:39;;;;;;;;;4.00;4.00;;;;;16.58;59.78;98290.50;4895706;28;104041;-66
2022/10/03 08:54:18;;;;;;;;;4.00;4.00;;;;;16.59;60.30;98286.72;4945042;28;102248;-66
2022/10/03 08:57:43;;;;;;;;;5.67;5.00;;;;;16.59;60.52;98287.53;4912427;28;102369;-66
2022/10/03 09:00:21;;;;;;;;;4.00;3.00;;;;;16.59;60.71;98286.72;4842990;28;102632;-66
2022/10/03 09:03:06;;;;;;;;;4.00;4.00;;;;;16.59;60.55;98284.81;4896241;28;104198;-66
2022/10/03 09:06:11;;;;;;;;;3.33;3.33;;;;;16.59;60.38;98286.72;4924836;28;102283;-66
2022/10/03 09:09:10;;;;;;;;;4.00;4.00;;;;;16.59;60.24;98275.78;4935943;28;102332;-66
2022/10/03 09:12:07;;;;;;;;;4.00;3.67;;;;;16.57;60.71;98289.63;4943165;28;102491;-66
2022/10/03 09:14:45;;;;;;;;;5.00;4.00;;;;;16.59;60.13;98287.53;4937749;28;108876;-66
2022/10/03 09:17:55;;;;;;;;;3.67;3.33;;;;;16.60;60.62;98286.47;4916880;28;102658;-66
2022/10/03 09:20:53;;;;;;;;;4.33;4.00;;;;;16.60;60.61;98288.38;4930415;28;102170;-66
2022/10/03 09:23:50;;;;;;;;;5.00;4.00;;;;;16.59;60.18;98295.72;4929398;28;102257;-65
2022/10/03 09:26:54;;;;;;;;;4.00;4.00;;;;;16.61;60.18;98281.84;4910854;28;109023;-66
2022/10/03 09:29:53;;;;;;;;;3.00;3.00;;;;;16.61;59.83;98298.22;4924409;28;102568;-66
2022/10/03 09:32:31;;;;;;;;;4.00;3.67;;;;;16.61;59.57;98306.41;4893313;28;102354;-66
2022/10/03 09:35:30;;;;;;;;;3.00;3.00;;;;;16.60;60.63;98302.84;4917155;28;102455;-66
2022/10/03 09:38:00;;;;;;;;;4.00;3.33;;;;;16.60;60.37;98299.28;4924255;28;108097;-66
2022/10/03 09:40:45;;;;;;;;;5.00;4.00;;;;;16.60;60.59;98289.19;4928042;28;102284;-66
2022/10/03 09:43:43;;;;;;;;;4.00;4.00;;;;;16.60;59.45;98300.13;4923546;28;102216;-66
2022/10/03 09:47:21;;;;;;;;;4.00;3.33;;;;;16.61;60.39;98299.06;4938528;28;102735;-66
2022/10/03 09:50:08;;;;;;;;;5.00;4.00;;;;;16.61;60.32;98295.50;4931612;28;108801;-66
2022/10/03 09:53:09;;;;;;;;;4.00;3.67;;;;;16.61;59.76;98295.50;4922698;28;102621;-66
2022/10/03 09:55:39;;;;;;;;;4.00;3.00;;;;;16.61;60.38;98300.94;4945102;28;103206;-66
2022/10/03 09:58:40;;;;;;;;;4.00;4.00;;;;;16.61;60.06;98306.41;4916615;28;102561;-67
2022/10/03 10:01:28;;;;;;;;;3.33;3.33;;;;;16.61;60.20;98311.88;4920129;28;108876;-66
2022/10/03 10:04:17;;;;;;;;;4.00;3.00;;;;;16.60;59.85;98305.56;4909792;28;102208;-66
2022/10/03 10:07:39;;;;;;;;;3.00;3.00;;;;;16.61;60.44;98300.94;4923631;28;102377;-66
2022/10/03 10:10:32;;;;;;;;;3.00;3.00;;;;;16.60;60.08;98294.66;4917807;28;102388;-66
2022/10/03 10:13:14;;;;;;;;;4.00;4.00;;;;;16.62;60.02;98302.59;4928422;28;108855;-66
2022/10/03 10:16:12;;;;;;;;;3.00;3.00;;;;;16.61;59.66;98312.69;4925396;28;102124;-66
2022/10/03 10:19:00;;;;;;;;;4.00;4.00;;;;;16.61;59.71;98301.78;4923008;28;102157;-66
2022/10/03 10:21:35;;;;;;;;;4.00;4.00;;;;;16.62;60.24;98291.66;4941171;28;103099;-66
2022/10/03 10:24:39;;;;;;;;;4.00;3.00;;;;;16.61;60.17;98300.94;4936699;28;104040;-66
2022/10/03 10:27:19;;;;;;;;;4.00;4.00;;;;;16.61;60.02;98311.88;4946350;28;101979;-66
2022/10/03 10:30:10;;;;;;;;;4.00;4.00;;;;;16.62;60.09;98305.31;4919789;28;102258;-66
2022/10/03 10:32:58;;;;;;;;;3.00;3.00;;;;;16.61;60.00;98312.69;4942809;28;102180;-67
2022/10/03 10:35:45;;;;;;;;;4.00;3.00;;;;;16.61;60.14;98307.25;4919800;28;109759;-66
2022/10/03 10:38:34;;;;;;;;;3.67;3.00;;;;;16.60;60.22;98302.84;4926222;28;103236;-65
2022/10/03 10:41:19;;;;;;;;;3.33;3.00;;;;;16.58;59.92;98296.78;4944956;28;102197;-66
2022/10/03 10:44:07;;;;;;;;;4.00;3.00;;;;;16.60;59.48;98308.31;4935890;28;102590;-66
2022/10/03 10:47:08;;;;;;;;;4.00;3.33;;;;;16.60;60.00;98332.03;4929430;28;104074;-66
2022/10/03 10:49:47;;;;;;;;;3.33;3.33;;;;;16.59;59.92;98312.09;4946081;28;102495;-66
2022/10/03 10:52:50;;;;;;;;;3.00;3.00;;;;;16.60;60.35;98321.97;4938101;28;102533;-66
2022/10/03 10:56:07;;;;;;;;;4.00;3.00;;;;;16.60;60.43;98315.66;4926655;28;102921;-66
2022/10/03 10:58:47;;;;;;;;;3.00;3.00;;;;;16.60;59.58;98319.22;4891057;28;108826;-66
2022/10/03 11:01:38;;;;;;;;;3.33;2.33;;;;;16.60;60.30;98321.97;4929595;28;102590;-66
2022/10/03 11:04:35;;;;;;;;;3.00;2.00;;;;;16.60;59.76;98316.50;4927553;28;102502;-66
2022/10/03 11:07:20;;;;;;;;;4.00;4.00;;;;;16.61;59.83;98320.88;4938490;28;103143;-67
2022/10/03 11:10:25;;;;;;;;;3.00;3.00;;;;;16.61;60.21;98317.34;4929488;28;109702;-66
2022/10/03 11:12:52;;;;;;;;;4.00;3.67;;;;;16.60;59.48;98319.22;4926934;28;103969;-67
2022/10/03 11:15:57;;;;;;;;;3.00;2.67;;;;;16.61;59.84;98326.34;4930146;28;102165;-66
2022/10/03 11:18:43;;;;;;;;;3.67;3.67;;;;;16.61;59.48;98333.72;4837605;28;102614;-66
2022/10/03 11:21:48;;;;;;;;;3.00;3.00;;;;;16.61;59.48;98341.91;4830997;28;109172;-66
2022/10/03 11:24:28;;;;;;;;;3.00;3.00;;;;;16.60;59.32;98341.06;4906563;28;102654;-67
2022/10/03 11:27:28;;;;;;;;;2.67;2.67;;;;;16.60;60.19;98338.34;4917122;28;102028;-66
2022/10/03 11:30:18;;;;;;;;;3.00;3.00;;;;;16.60;59.48;98345.69;4912349;28;102571;-67
2022/10/03 11:33:04;;;;;;;;;3.00;2.33;;;;;16.59;60.58;98347.59;4905295;28;108892;-66
2022/10/03 11:35:43;;;;;;;;;3.00;3.00;;;;;16.59;59.36;98347.59;4933192;28;102111;-67
2022/10/03 11:38:33;;;;;;;;;3.00;3.00;;;;;16.58;59.97;98345.94;4932761;28;102295;-66
2022/10/03 11:41:14;;;;;;;;;3.00;3.00;;;;;16.59;59.74;98350.31;4930757;28;102441;-66
2022/10/03 11:43:58;;;;;;;;;3.00;3.00;;;;;16.58;60.11;98348.66;4941190;28;108964;-66
2022/10/03 11:46:49;;;;;;;;;2.67;2.33;;;;;16.57;59.48;98346.16;4934730;28;102395;-66
2022/10/03 11:49:55;;;;;;;;;3.00;3.00;;;;;16.58;60.03;98343.19;4910435;28;102057;-66
2022/10/03 11:52:52;;;;;;;;;2.67;2.00;;;;;16.59;59.89;98344.88;4932652;28;102535;-66
2022/10/03 11:55:38;;;;;;;;;3.00;3.00;;;;;16.59;59.77;98336.69;4922193;28;108810;-66
2022/10/03 11:58:30;;;;;;;;;4.00;3.00;;;;;16.59;60.27;98341.31;4906243;28;102248;-66
2022/10/03 12:01:23;;;;;;;;;5.00;3.67;;;;;16.59;59.72;98347.59;4902742;28;104714;-66
2022/10/03 12:04:02;;;;;;;;;2.00;2.00;;;;;16.60;59.91;98349.25;4935935;28;102258;-67
2022/10/03 12:09:42;;;;;;;;;3.00;3.00;;;;;16.59;60.12;98361.25;4918342;28;102427;-66
2022/10/03 12:12:42;;;;;;;;;3.00;3.00;;;;;16.59;59.57;98366.69;4928765;28;102232;-66
2022/10/03 12:15:30;;;;;;;;;2.67;2.67;;;;;16.59;59.50;98365.88;4922514;28;102481;-66
2022/10/03 12:18:03;;;;;;;;;4.00;3.00;;;;;16.59;59.93;98369.44;4921070;28;108855;-67
2022/10/03 12:20:33;;;;;;;;;3.00;3.00;;;;;16.59;60.24;98368.59;4928684;28;102348;-67
2022/10/03 12:23:17;;;;;;;;;3.00;2.33;;;;;16.59;59.82;98358.50;4922462;28;102452;-66
2022/10/03 12:25:44;;;;;;;;;2.00;2.00;;;;;16.58;59.32;98372.41;4917666;28;102283;-66
2022/10/03 12:28:24;;;;;;;;;3.00;3.00;;;;;16.58;60.01;98384.16;4924215;28;103475;-66
2022/10/03 12:31:11;;;;;;;;;3.00;2.00;;;;;16.59;59.34;98374.06;4935585;28;102255;-67
2022/10/03 12:34:28;;;;;;;;;4.00;2.67;;;;;16.59;60.41;98380.34;4929705;28;102205;-66
2022/10/03 12:37:09;;;;;;;;;3.00;3.00;;;;;16.59;59.68;98390.44;4856466;28;102366;-66
2022/10/03 12:39:49;;;;;;;;;2.00;2.00;;;;;16.57;59.88;98377.00;4910621;28;104059;-67
2022/10/03 12:42:25;;;;;;;;;3.67;3.67;;;;;16.58;59.96;98373.22;4913840;28;102473;-66
2022/10/03 12:45:11;;;;;;;;;2.00;2.00;;;;;16.59;59.98;98374.06;4919246;28;102259;-65
2022/10/03 12:47:38;;;;;;;;;3.00;3.00;;;;;16.59;60.01;98380.34;4939458;28;102259;-67
2022/10/03 12:50:44;;;;;;;;;2.33;2.33;;;;;16.59;59.40;98391.28;4936084;28;109025;-67
2022/10/03 12:53:16;;;;;;;;;3.00;3.00;;;;;16.58;59.36;98384.16;4927455;28;102375;-67
2022/10/03 12:55:59;;;;;;;;;3.00;3.00;;;;;16.59;59.72;98396.72;4938373;28;102279;-63
2022/10/03 12:58:41;;;;;;;;;2.00;2.00;;;;;16.59;59.81;98398.63;4927195;28;102237;-66
2022/10/03 13:01:08;;;;;;;;;3.00;3.00;;;;;16.59;59.95;98394.00;4938103;28;110420;-67
2022/10/03 13:03:49;;;;;;;;;2.00;2.00;;;;;16.59;59.48;98395.91;4940436;28;102465;-66
2022/10/03 13:06:28;;;;;;;;;2.67;2.67;;;;;16.58;59.98;98394.22;4945501;28;102831;-67
2022/10/03 13:09:15;;;;;;;;;3.00;3.00;;;;;16.58;60.18;98397.78;4930021;28;102453;-67
2022/10/03 13:11:57;;;;;;;;;2.33;2.00;;;;;16.57;59.80;98379.72;4925230;28;104207;-67